Time;durP1;ratioP1;P1;durP2;ratioP2;P2;SDS_P1;SDS_P2;PMS_P1;PMS_P2;Temp;Humidity;BMP_temperature;BMP_pressure;BME280_temperature;BME280_humidity;BME280_pressure;Samples;Min_cycle;Max_cycle;Signal;HPM_P1;HPM_P2
2022/06/07 00:02:24;;;;;;;729.90;693.20;;;17.00;99.90;;;16.85;100.00;99971.19;5036999;28;20231;-62
2022/06/07 00:04:53;;;;;;;726.33;689.97;;;17.00;99.90;;;16.85;100.00;99989.88;5050405;28;20224;-62
2022/06/07 00:07:24;;;;;;;757.33;718.42;;;16.90;99.90;;;16.81;100.00;99996.22;5064521;28;20216;-62
2022/06/07 00:09:53;;;;;;;738.80;701.65;;;16.90;99.90;;;16.69;100.00;100005.38;5066259;28;20684;-62
2022/06/07 00:12:22;;;;;;;743.38;705.85;;;16.90;99.90;;;16.70;100.00;100025.84;5037800;28;20198;-61
2022/06/07 00:14:50;;;;;;;740.75;703.22;;;16.80;99.90;;;16.65;100.00;100041.09;5060520;28;20213;-62
2022/06/07 00:17:19;;;;;;;738.20;700.72;;;16.80;99.90;;;16.60;100.00;100049.16;5042700;28;20205;-62
2022/06/07 00:19:47;;;;;;;695.75;661.83;;;16.70;99.90;;;16.55;100.00;100053.72;5060782;28;20209;-62
2022/06/07 00:22:16;;;;;;;697.10;663.33;;;16.70;99.90;;;16.54;100.00;100069.75;5046176;28;20241;-62
2022/06/07 00:24:45;;;;;;;724.00;687.47;;;16.70;99.90;;;16.52;100.00;100069.78;5037738;28;20236;-62
2022/06/07 00:27:13;;;;;;;685.03;651.25;;;16.70;99.90;;;16.53;100.00;100076.91;5014687;28;20198;-62
2022/06/07 00:29:43;;;;;;;732.28;694.78;;;16.60;99.90;;;16.54;100.00;100080.44;5023746;28;20205;-61
2022/06/07 00:32:13;;;;;;;712.33;677.25;;;16.60;99.90;;;16.53;100.00;100084.03;5048398;28;20218;-62
2022/06/07 00:34:41;;;;;;;713.67;678.20;;;16.60;99.90;;;16.52;100.00;100087.59;5061833;28;20208;-62
2022/06/07 00:37:09;;;;;;;693.63;659.58;;;16.60;99.90;;;16.49;100.00;100099.22;5056069;28;20214;-62
2022/06/07 00:39:37;;;;;;;701.97;667.22;;;16.60;99.90;;;16.39;100.00;100094.97;5065507;28;20205;-61
2022/06/07 00:42:06;;;;;;;733.22;696.53;;;16.50;99.90;;;16.50;100.00;100122.34;5039105;28;20229;-61
2022/06/07 00:44:41;;;;;;;718.45;682.00;;;16.50;99.90;;;16.47;100.00;100124.19;5042409;28;21362;-62
2022/06/07 00:47:20;;;;;;;678.35;645.53;;;16.50;99.90;;;16.50;100.00;100132.13;5038828;28;20212;-62
2022/06/07 00:49:56;;;;;;;681.65;648.25;;;16.50;99.90;;;16.40;100.00;100123.44;5030951;28;20210;-62
2022/06/07 00:52:28;;;;;;;692.10;657.83;;;16.50;99.90;;;16.44;100.00;100130.47;5025987;28;20684;-62
2022/06/07 00:55:00;;;;;;;691.10;657.13;;;16.50;99.90;;;16.40;100.00;100135.91;5047908;28;20205;-62
2022/06/07 00:57:34;;;;;;;696.63;661.47;;;16.40;99.90;;;16.37;100.00;100133.28;5029743;28;20228;-62
2022/06/07 01:00:10;;;;;;;697.28;662.83;;;16.40;99.90;;;16.30;100.00;100144.06;5038588;28;20205;-62
2022/06/07 01:02:39;;;;;;;710.65;675.33;;;16.40;99.90;;;16.32;100.00;100155.59;5071014;28;20239;-61
2022/06/07 01:05:08;;;;;;;708.42;672.85;;;16.40;99.90;;;16.26;100.00;100153.03;5040743;28;20704;-61
2022/06/07 01:13:22;;;;;;;707.33;672.38;;;16.30;99.90;;;16.18;100.00;100170.97;5080353;28;20221;-62
2022/06/07 01:16:05;;;;;;;715.75;679.70;;;16.30;99.90;;;16.17;100.00;100176.34;5055653;28;20224;-61
2022/06/07 01:18:38;;;;;;;731.08;693.60;;;16.20;99.90;;;16.15;100.00;100168.38;5041287;28;20219;-62
2022/06/07 01:21:30;;;;;;;706.70;671.15;;;16.20;99.90;;;16.14;100.00;100177.28;5033182;28;20245;-61
2022/06/07 01:24:00;;;;;;;705.65;670.40;;;16.20;99.90;;;16.13;100.00;100190.66;5057435;28;20209;-61
2022/06/07 01:26:35;;;;;;;667.70;634.88;;;16.20;99.90;;;16.18;100.00;100199.44;5039153;28;20606;-61
2022/06/07 01:29:07;;;;;;;655.13;623.33;;;16.20;99.90;;;16.17;100.00;100192.34;5040543;28;20205;-62
2022/06/07 01:31:35;;;;;;;650.63;619.20;;;16.20;99.90;;;16.15;100.00;100194.16;5037045;28;20238;-61
2022/06/07 01:34:04;;;;;;;660.42;628.13;;;16.20;99.90;;;16.14;100.00;100200.41;5024180;28;20208;-61
2022/06/07 01:36:32;;;;;;;694.85;660.38;;;16.20;99.90;;;16.19;100.00;100199.44;5028000;28;20198;-61
2022/06/07 01:41:56;;;;;;;666.50;633.85;;;16.20;99.90;;;16.27;100.00;100220.63;5043352;28;20228;-61
2022/06/07 01:44:31;;;;;;;670.42;637.22;;;16.20;99.90;;;16.19;100.00;100210.09;5026541;28;20214;-61
2022/06/07 01:47:00;;;;;;;648.58;617.05;;;16.20;99.90;;;16.17;100.00;100206.56;5049788;28;20224;-62
2022/06/07 01:49:31;;;;;;;643.40;612.63;;;16.20;99.90;;;16.20;100.00;100210.97;5058017;28;20209;-62
2022/06/07 01:52:00;;;;;;;655.78;624.28;;;16.20;99.90;;;16.17;100.00;100217.25;5021417;28;20232;-62
2022/06/07 01:54:32;;;;;;;652.28;620.88;;;16.20;99.90;;;16.12;100.00;100210.22;5023794;28;20193;-61
2022/06/07 01:57:00;;;;;;;658.40;626.08;;;16.10;99.90;;;16.14;100.00;100219.09;5024912;28;20209;-62
2022/06/07 01:59:28;;;;;;;647.95;616.58;;;16.10;99.90;;;16.09;100.00;100223.63;5038134;28;20562;-62
2022/06/07 02:01:56;;;;;;;653.97;621.95;;;16.10;99.90;;;16.07;100.00;100223.66;5039355;28;20228;-61
2022/06/07 02:04:24;;;;;;;666.70;633.78;;;16.10;99.90;;;16.08;100.00;100224.53;5047631;28;20222;-61
2022/06/07 02:06:52;;;;;;;670.55;637.38;;;16.10;99.90;;;16.11;100.00;100244.03;5056153;28;20244;-61
2022/06/07 02:09:32;;;;;;;659.28;627.90;;;16.10;99.90;;;16.06;100.00;100245.88;5034036;28;20237;-61
2022/06/07 02:12:00;;;;;;;670.38;637.65;;;16.10;99.90;;;16.08;100.00;100235.19;5042883;28;20689;-62
2022/06/07 02:14:30;;;;;;;692.08;657.30;;;16.10;99.90;;;16.03;100.00;100245.06;5046184;28;20198;-62
2022/06/07 02:16:58;;;;;;;684.53;650.50;;;16.10;99.90;;;16.07;100.00;100246.78;5049518;28;20681;-61
2022/06/07 02:19:35;;;;;;;733.15;694.50;;;16.10;99.90;;;15.92;100.00;100248.78;5041406;28;20205;-61
2022/06/07 02:22:05;;;;;;;691.38;656.40;;;16.00;99.90;;;15.99;100.00;100252.22;5035854;28;20225;-61
2022/06/07 02:24:33;;;;;;;679.67;646.70;;;16.00;99.90;;;15.99;100.00;100253.13;5034078;28;20202;-62
2022/06/07 02:27:07;;;;;;;664.63;632.85;;;16.00;99.90;;;15.92;100.00;100250.56;5021045;28;20241;-62
2022/06/07 02:29:43;;;;;;;676.67;643.88;;;16.00;99.90;;;15.90;100.00;100269.25;5054421;28;20213;-62
2022/06/07 02:32:21;;;;;;;650.05;619.28;;;15.90;99.90;;;15.94;100.00;100280.75;5052603;28;20248;-62
2022/06/07 02:34:53;;;;;;;651.42;619.83;;;15.90;99.90;;;15.90;100.00;100284.38;5056600;28;20212;-62
2022/06/07 02:37:22;;;;;;;668.35;636.08;;;15.90;99.90;;;15.81;100.00;100287.19;5024085;28;20206;-62
2022/06/07 02:39:51;;;;;;;683.80;649.67;;;15.90;99.90;;;15.80;100.00;100290.75;5046823;28;20202;-61
2022/06/07 02:42:24;;;;;;;690.70;655.92;;;15.80;99.90;;;15.85;100.00;100296.91;5019848;28;20312;-61
2022/06/07 02:44:52;;;;;;;646.50;615.83;;;15.80;99.90;;;15.83;100.00;100296.03;5014098;28;20210;-61
2022/06/07 02:47:20;;;;;;;654.10;622.50;;;15.80;99.90;;;15.75;100.00;100298.81;5038430;28;20216;-61
2022/06/07 02:49:54;;;;;;;658.30;626.00;;;15.80;99.90;;;15.75;100.00;100313.94;5057416;28;20201;-61
2022/06/07 02:52:22;;;;;;;658.88;627.28;;;17.20;99.90;;;15.72;100.00;100312.19;5035176;28;20210;-62
2022/06/07 02:55:03;;;;;;;655.80;623.58;;;15.80;99.90;;;15.75;100.00;100317.47;5039777;28;20198;-62
2022/06/07 02:57:32;;;;;;;679.45;645.55;;;15.70;99.90;;;15.74;100.00;100314.84;5054441;28;20212;-62
2022/06/07 03:00:13;;;;;;;670.00;637.58;;;15.70;99.90;;;15.71;100.00;100318.44;5071448;28;20208;-61
2022/06/07 03:02:42;;;;;;;674.95;641.75;;;15.70;99.90;;;15.76;100.00;100329.03;5057158;28;20197;-61
2022/06/07 03:05:12;;;;;;;700.80;665.17;;;15.70;99.90;;;15.71;100.00;100312.22;5043825;28;20221;-61
2022/06/07 03:07:47;;;;;;;674.40;640.55;;;15.70;99.90;;;15.71;100.00;100320.22;5038203;28;20212;-62
2022/06/07 03:10:15;;;;;;;682.92;647.92;;;15.70;99.90;;;15.71;100.00;100328.22;5070051;28;20224;-61
2022/06/07 03:12:44;;;;;;;642.15;612.00;;;15.70;99.90;;;15.67;100.00;100320.25;5048361;28;20204;-61
2022/06/07 03:15:17;;;;;;;646.58;615.22;;;15.60;99.90;;;15.65;100.00;100335.38;5054256;28;20569;-61
2022/06/07 03:17:46;;;;;;;626.97;597.05;;;15.60;99.90;;;15.63;100.00;100337.19;5026761;28;20213;-62
2022/06/07 03:20:18;;;;;;;645.92;614.55;;;15.60;99.90;;;15.60;100.00;100346.97;5058152;28;20221;-62
2022/06/07 03:22:45;;;;;;;676.08;642.33;;;15.60;99.90;;;15.56;100.00;100347.88;5050972;28;20210;-61
2022/06/07 03:25:13;;;;;;;694.42;659.35;;;15.50;99.90;;;15.53;100.00;100354.13;5062290;28;20212;-62
2022/06/07 03:27:42;;;;;;;708.40;671.90;;;15.50;99.90;;;15.51;100.00;100363.06;5037903;28;20232;-62
2022/06/07 03:30:15;;;;;;;706.17;669.38;;;15.50;99.90;;;15.50;100.00;100366.63;5043611;28;20221;-61
2022/06/07 03:32:46;;;;;;;694.28;657.63;;;15.50;99.90;;;15.46;100.00;100360.44;5057061;28;20203;-61
2022/06/07 03:35:15;;;;;;;723.28;684.67;;;15.50;99.90;;;15.43;100.00;100360.47;5043514;28;20205;-62
2022/06/07 03:37:44;;;;;;;679.17;645.05;;;15.40;99.90;;;15.36;100.00;100370.34;5040583;28;20201;-61
2022/06/07 03:40:42;;;;;;;680.72;646.58;;;15.40;99.90;;;15.36;100.00;100377.44;5022831;28;20216;-61
2022/06/07 03:43:06;;;;;;;690.70;655.00;;;15.40;99.90;;;15.25;100.00;100385.56;5024580;28;20210;-61
2022/06/07 03:45:36;;;;;;;641.33;611.08;;;15.30;99.90;;;15.21;100.00;100389.16;5041738;28;20204;-61
2022/06/07 03:48:04;;;;;;;647.17;615.53;;;15.30;99.90;;;15.17;100.00;100394.53;5019023;28;20222;-61
2022/06/07 03:50:34;;;;;;;650.90;618.88;;;15.30;99.90;;;15.14;100.00;100403.44;5038648;28;20225;-61
2022/06/07 03:53:03;;;;;;;656.80;624.47;;;15.20;99.90;;;15.14;100.00;100394.56;5063821;28;20204;-62
2022/06/07 03:55:56;;;;;;;592.17;563.95;;;15.20;99.90;;;15.13;100.00;100385.69;5037771;28;20208;-62
2022/06/07 03:58:29;;;;;;;641.55;609.97;;;15.20;99.90;;;15.05;100.00;100399.06;5027177;28;20208;-62
2022/06/07 04:01:01;;;;;;;640.65;608.85;;;15.20;99.90;;;14.97;100.00;100400.94;5041651;28;20225;-62
2022/06/07 04:03:30;;;;;;;661.05;627.92;;;15.10;99.90;;;15.02;100.00;100412.41;5039315;28;20197;-62
2022/06/07 04:06:00;;;;;;;674.93;640.50;;;15.10;99.90;;;15.08;100.00;100419.47;5014059;28;20599;-62
2022/06/07 04:08:32;;;;;;;649.88;617.60;;;15.10;99.90;;;14.96;100.00;100415.16;5025995;28;20450;-62
2022/06/07 04:11:02;;;;;;;641.80;610.03;;;15.10;99.90;;;14.95;100.00;100413.38;5027958;28;20232;-62
2022/06/07 04:13:40;;;;;;;649.50;616.50;;;15.10;99.90;;;14.98;100.00;100434.66;5055927;28;20231;-61
2022/06/07 04:16:16;;;;;;;677.10;641.67;;;15.10;99.90;;;15.06;100.00;100429.25;5038451;28;20210;-61
2022/06/07 04:18:50;;;;;;;645.95;613.45;;;15.10;99.90;;;15.16;100.00;100432.72;5040541;28;20201;-62
2022/06/07 04:21:22;;;;;;;617.15;587.78;;;15.10;99.90;;;15.16;100.00;100438.03;5032064;28;20222;-62
2022/06/07 04:23:51;;;;;;;636.83;606.28;;;15.10;99.90;;;15.24;100.00;100434.41;5041761;28;20204;-61
2022/06/07 04:26:25;;;;;;;619.95;590.33;;;15.20;99.90;;;15.35;100.00;100434.28;5020415;28;20221;-62
2022/06/07 04:28:57;;;;;;;620.78;590.83;;;15.20;99.90;;;15.44;100.00;100433.31;5038558;28;20201;-62
2022/06/07 04:31:27;;;;;;;662.72;628.85;;;15.30;99.90;;;15.71;100.00;100416.19;5027763;28;20229;-62
2022/06/07 04:34:02;;;;;;;630.33;599.80;;;15.30;99.90;;;15.80;100.00;100400.97;5038320;28;20649;-61
2022/06/07 04:36:30;;;;;;;645.55;613.45;;;15.40;99.90;;;15.95;100.00;100402.53;5051227;28;20216;-61
2022/06/07 04:39:04;;;;;;;616.40;586.95;;;15.50;99.90;;;16.04;100.00;100393.53;5036073;28;20668;-62
2022/06/07 04:41:40;;;;;;;613.08;583.42;;;15.60;99.90;;;16.06;100.00;100381.06;5062453;28;20229;-61
2022/06/07 04:44:11;;;;;;;613.17;583.38;;;15.70;99.90;;;16.08;100.00;100385.47;5056816;28;20205;-61
2022/06/07 04:46:40;;;;;;;655.65;622.75;;;15.80;99.90;;;16.10;100.00;100377.44;5053702;28;20225;-61
2022/06/07 04:49:08;;;;;;;654.70;622.22;;;15.80;99.90;;;16.11;100.00;100384.53;5012240;28;20205;-61
2022/06/07 04:51:38;;;;;;;681.47;646.35;;;15.80;99.90;;;16.24;100.00;100388.78;5052086;28;20226;-61
2022/06/07 04:54:32;;;;;;;691.60;655.85;;;15.90;99.90;;;16.36;100.00;100391.28;5047925;28;20209;-61
2022/06/07 04:57:04;;;;;;;684.75;650.17;;;16.00;99.90;;;16.48;100.00;100404.44;5050847;28;20329;-61
2022/06/07 04:59:32;;;;;;;731.38;691.95;;;16.10;99.90;;;16.67;100.00;100386.34;5051090;28;20283;-61
2022/06/07 05:02:03;;;;;;;676.45;642.97;;;16.20;99.90;;;16.76;100.00;100363.97;5055352;28;20233;-61
2022/06/07 05:04:32;;;;;;;698.20;662.83;;;16.30;99.90;;;16.86;100.00;100358.44;5032080;28;20221;-62
2022/06/07 05:07:09;;;;;;;689.47;654.78;;;16.40;99.90;;;16.96;100.00;100348.50;5070018;28;20229;-62
2022/06/07 05:09:48;;;;;;;691.60;656.45;;;16.40;99.90;;;17.02;100.00;100344.81;5050351;28;20193;-61
2022/06/07 05:12:25;;;;;;;656.50;624.58;;;16.50;99.90;;;17.02;100.00;100335.03;5080022;28;20201;-61
2022/06/07 05:14:54;;;;;;;665.53;632.78;;;16.60;99.90;;;17.06;100.00;100346.53;5054373;28;20206;-61
2022/06/07 05:17:30;;;;;;;663.88;631.33;;;16.70;99.90;;;17.10;100.00;100327.75;5063944;28;20213;-61
2022/06/07 05:20:00;;;;;;;678.35;645.05;;;16.80;99.90;;;17.16;100.00;100334.75;5038055;28;20210;-61
2022/06/07 05:22:29;;;;;;;691.15;656.03;;;16.70;99.90;;;17.17;100.00;100329.38;5041611;28;20216;-62
2022/06/07 05:24:58;;;;;;;709.42;671.92;;;16.80;99.90;;;17.23;100.00;100334.59;5051373;28;20214;-61
2022/06/07 05:27:41;;;;;;;697.35;660.83;;;16.90;99.90;;;17.24;100.00;100330.13;5050985;28;20228;-61
2022/06/07 05:30:15;;;;;;;748.13;707.63;;;17.00;99.90;;;17.29;100.00;100336.28;5037403;28;20326;-61
2022/06/07 05:32:46;;;;;;;665.13;631.45;;;17.00;99.90;;;17.34;100.00;100349.53;5034843;28;20209;-61
2022/06/07 05:35:22;;;;;;;677.35;642.90;;;17.00;99.90;;;17.42;100.00;100356.50;5040740;28;20201;-61
2022/06/07 05:38:02;;;;;;;675.15;642.40;;;17.10;99.90;;;17.43;100.00;100357.38;5053294;28;20613;-62
2022/06/07 05:40:32;;;;;;;713.47;676.35;;;17.10;99.90;;;17.51;100.00;100358.97;5058599;28;20233;-61
2022/06/07 05:43:01;;;;;;;695.70;660.03;;;17.20;99.90;;;17.55;100.00;100354.44;5031587;28;20213;-62
2022/06/07 05:45:38;;;;;;;685.88;651.97;;;17.20;99.90;;;17.64;100.00;100340.00;5055740;28;20211;-61
2022/06/07 05:48:14;;;;;;;710.50;673.67;;;17.30;99.90;;;17.71;100.00;100342.56;5037550;28;20229;-61
2022/06/07 05:50:50;;;;;;;725.28;688.08;;;17.30;99.90;;;17.71;100.00;100339.00;5060216;28;20233;-61
2022/06/07 05:53:21;;;;;;;722.42;685.45;;;17.40;99.90;;;17.69;100.00;100316.75;5026364;28;20209;-61
2022/06/07 05:55:52;;;;;;;660.47;625.38;;;17.40;99.90;;;17.68;100.00;100331.03;5071734;28;20212;-61
2022/06/07 05:58:25;;;;;;;653.22;616.20;;;17.40;99.90;;;17.97;100.00;100343.78;5028626;28;20205;-61
2022/06/07 06:00:56;;;;;;;751.45;711.75;;;17.50;99.90;;;18.43;100.00;100365.91;5034173;28;20248;-62
2022/06/07 06:03:28;;;;;;;707.63;670.13;;;17.80;99.90;;;18.65;100.00;100343.97;5038418;28;20214;-61
2022/06/07 06:05:57;;;;;;;743.10;704.53;;;18.00;99.90;;;18.58;100.00;100319.13;5046715;28;20227;-62
2022/06/07 06:11:25;;;;;;;764.45;724.05;;;18.30;99.90;;;18.44;100.00;100298.03;5048963;28;20221;-61
2022/06/07 06:14:11;;;;;;;752.83;713.53;;;18.30;99.90;;;18.52;100.00;100297.84;5034142;28;20220;-62
2022/06/07 06:16:43;;;;;;;804.83;761.05;;;18.30;99.90;;;18.61;100.00;100303.00;5046439;28;20206;-61
2022/06/07 06:19:17;;;;;;;737.45;699.25;;;18.30;99.90;;;18.52;100.00;100288.00;5034061;28;20692;-61
2022/06/07 06:21:49;;;;;;;697.65;661.30;;;18.40;99.90;;;18.57;100.00;100282.53;5051161;28;20225;-61
2022/06/07 06:24:18;;;;;;;719.25;680.40;;;18.40;99.90;;;18.63;99.20;100266.34;5046774;28;20217;-61
2022/06/07 06:26:46;;;;;;;709.72;671.47;;;18.40;99.90;;;18.72;99.48;100274.13;5013471;28;20220;-61
2022/06/07 06:29:19;;;;;;;759.17;718.78;;;18.50;99.90;;;18.60;100.00;100281.56;5035039;28;20223;-60
2022/06/07 06:31:50;;;;;;;755.90;715.78;;;18.60;99.90;;;18.67;100.00;100286.75;5042339;28;20217;-62
2022/06/07 06:34:20;;;;;;;756.13;716.00;;;18.60;99.90;;;18.81;100.00;100289.97;5046251;28;20209;-61
2022/06/07 06:36:48;;;;;;;824.97;779.28;;;18.70;99.90;;;19.12;100.00;100300.72;5050880;28;20208;-61
2022/06/07 06:39:22;;;;;;;751.22;712.83;;;18.80;99.90;;;19.38;100.00;100299.09;5054260;28;20209;-62
2022/06/07 06:41:53;;;;;;;717.13;677.92;;;19.10;99.90;;;19.60;99.99;100299.41;4994391;28;20250;-62
2022/06/07 06:44:33;;;;;;;724.95;686.25;;;19.30;99.90;;;19.21;98.64;100248.63;5040191;28;20212;-62
2022/06/07 06:47:02;;;;;;;734.67;695.05;;;19.30;99.90;;;19.07;100.00;100254.41;5011913;28;20210;-61
2022/06/07 06:49:32;;;;;;;760.92;719.33;;;19.20;99.90;;;19.48;99.32;100281.78;4990732;28;20237;-61
2022/06/07 06:52:09;;;;;;;785.05;742.05;;;19.20;99.90;;;19.55;97.69;100263.78;5011894;28;20713;-61
2022/06/07 06:54:38;;;;;;;738.85;698.80;;;19.40;99.90;;;19.66;95.83;100249.13;5037071;28;20216;-61
2022/06/07 06:57:21;;;;;;;787.75;746.60;;;19.60;99.90;;;19.64;95.59;100224.13;5009503;28;20568;-61
2022/06/07 06:59:57;;;;;;;737.90;698.35;;;19.80;99.90;;;19.86;95.59;100231.50;5040107;28;20209;-61
2022/06/07 07:02:27;;;;;;;756.75;714.92;;;19.70;99.90;;;20.13;96.12;100252.94;5014971;28;20197;-62
2022/06/07 07:05:11;;;;;;;760.65;719.28;;;20.00;99.90;;;19.92;93.92;100191.03;5032109;28;20666;-61
2022/06/07 07:07:42;;;;;;;772.22;730.47;;;20.10;99.90;;;20.02;91.37;100179.06;5011977;28;20213;-61
2022/06/07 07:10:17;;;;;;;828.42;782.67;;;20.10;99.90;;;19.93;92.20;100165.97;5023552;28;20222;-62
2022/06/07 07:12:46;;;;;;;802.10;757.70;;;20.10;99.90;;;19.88;90.94;100139.28;5011848;28;20202;-61
2022/06/07 07:15:19;;;;;;;776.88;733.95;;;20.10;99.90;;;20.04;93.72;100186.16;5017702;28;20197;-62
2022/06/07 07:17:53;;;;;;;759.03;718.97;;;20.20;99.90;;;19.61;91.66;100110.69;5025289;28;20205;-61
2022/06/07 07:20:23;;;;;;;719.00;679.85;;;20.10;99.90;;;19.73;90.33;100116.53;4994914;28;20226;-61
2022/06/07 07:22:58;;;;;;;716.45;677.05;;;20.00;99.90;;;19.74;91.42;100129.00;5035643;28;20217;-62
2022/06/07 07:25:27;;;;;;;742.47;701.40;;;20.00;99.90;;;19.97;91.40;100148.84;5006137;28;20206;-61
2022/06/07 07:27:56;;;;;;;718.67;679.08;;;20.10;99.90;;;20.00;90.04;100124.56;5011912;28;20216;-62
2022/06/07 07:30:29;;;;;;;794.63;750.22;;;20.20;99.90;;;19.95;89.28;100111.31;4993499;28;20226;-62
2022/06/07 07:32:57;;;;;;;786.22;741.88;;;20.20;99.90;;;20.00;91.82;100138.00;5009746;28;20210;-61
2022/06/07 07:35:26;;;;;;;767.85;724.97;;;20.20;99.90;;;20.07;88.36;100104.63;5048391;28;20205;-62
2022/06/07 07:37:59;;;;;;;844.03;798.35;;;20.30;99.90;;;20.11;89.19;100103.59;5030140;28;20197;-61
2022/06/07 07:40:28;;;;;;;784.95;741.08;;;20.00;99.90;;;20.20;88.02;100080.91;5016915;28;20229;-62
2022/06/07 07:42:58;;;;;;;776.38;732.97;;;20.40;99.90;;;20.28;88.06;100087.75;5027944;28;20210;-61
2022/06/07 07:45:37;;;;;;;790.85;746.13;;;20.40;99.90;;;20.33;91.18;100120.69;5003358;28;20202;-61
2022/06/07 07:48:11;;;;;;;730.10;690.25;;;20.50;99.90;;;20.37;92.25;100134.88;5009080;28;20210;-61
2022/06/07 07:50:42;;;;;;;743.40;702.25;;;20.70;99.90;;;20.44;87.70;100098.84;4992753;28;20222;-61
2022/06/07 07:53:15;;;;;;;737.50;696.95;;;20.70;99.90;;;20.84;87.60;100113.50;5024093;28;20216;-61
2022/06/07 07:56:11;;;;;;;777.22;734.15;;;20.80;99.90;;;20.99;86.79;100099.47;5006160;28;20217;-62
2022/06/07 07:58:44;;;;;;;794.75;749.80;;;21.00;99.90;;;21.08;85.64;100077.59;5027458;28;20685;-62
2022/06/07 08:01:21;;;;;;;767.53;723.97;;;21.10;99.90;;;21.14;84.23;100041.53;5031881;28;20218;-62
2022/06/07 08:03:51;;;;;;;793.10;750.22;;;21.30;99.90;;;21.44;84.95;100061.81;5029975;28;20643;-62
2022/06/07 08:06:29;;;;;;;758.25;715.92;;;21.40;99.90;;;21.10;85.12;100008.53;5005342;28;20201;-62
2022/06/07 08:09:00;;;;;;;730.03;688.88;;;21.50;99.90;;;21.03;86.93;100017.78;5023122;28;20210;-62
2022/06/07 08:11:34;;;;;;;740.58;698.67;;;21.30;99.90;;;21.33;86.48;100056.00;5009782;28;20233;-62
2022/06/07 08:14:04;;;;;;;798.30;753.05;;;21.40;99.90;;;21.52;83.94;100034.59;5003862;28;20198;-62
2022/06/07 08:16:33;;;;;;;767.22;723.83;;;21.50;99.90;;;21.57;84.99;100032.59;5023366;28;20199;-62
2022/06/07 08:19:08;;;;;;;739.05;696.78;;;21.60;99.90;;;21.87;84.70;100046.56;5032100;28;20199;-61
2022/06/07 08:21:39;;;;;;;783.95;739.63;;;21.80;99.90;;;22.02;83.36;100037.78;4996313;28;20237;-62
2022/06/07 08:24:08;;;;;;;761.08;717.67;;;22.00;99.90;;;22.06;83.25;100003.56;5018312;28;20701;-62
2022/06/07 08:26:39;;;;;;;707.33;667.97;;;22.10;99.90;;;22.24;82.43;100014.41;5045205;28;20206;-61
2022/06/07 08:29:13;;;;;;;731.75;689.13;;;22.30;99.90;;;22.35;83.33;100003.16;5023825;28;20214;-62
2022/06/07 08:31:42;;;;;;;771.40;726.78;;;22.50;99.90;;;22.91;83.00;100042.75;5028778;28;20221;-61
2022/06/07 08:39:47;;;;;;;700.95;661.22;;;23.00;99.90;;;22.69;80.70;99926.97;5025854;28;20201;-62
2022/06/07 08:42:29;;;;;;;766.30;720.92;;;23.00;99.90;;;22.82;79.17;99901.19;5011432;28;20225;-61
2022/06/07 08:45:24;;;;;;;762.22;717.58;;;23.10;99.90;;;22.47;80.52;99864.28;5046839;28;20220;-62
2022/06/07 08:48:21;;;;;;;778.55;732.50;;;23.10;99.90;;;22.69;80.22;99883.84;5056600;28;20211;-62
2022/06/07 08:51:20;;;;;;;833.58;785.35;;;23.20;99.90;;;22.03;80.41;99789.16;5031519;28;20229;-62
2022/06/07 08:53:57;;;;;;;804.08;755.45;;;23.10;99.90;;;22.20;79.18;99805.41;5025940;28;20201;-62
2022/06/07 08:56:33;;;;;;;759.58;714.60;;;22.90;99.90;;;22.16;77.87;99763.44;5004997;28;20193;-61
2022/06/07 08:59:14;;;;;;;741.90;697.83;;;22.80;99.90;;;21.92;79.02;99749.28;5018331;28;20673;-62
2022/06/07 09:02:05;;;;;;;744.92;699.92;;;22.90;99.90;;;22.50;79.87;99827.28;5009588;28;20220;-61
2022/06/07 09:04:36;;;;;;;752.78;708.15;;;22.90;99.90;;;21.90;80.44;99758.38;5012330;28;20243;-61
2022/06/07 09:07:14;;;;;;;776.95;729.63;;;22.80;99.90;;;22.84;79.74;99855.28;5011237;28;20209;-61
2022/06/07 09:12:59;;;;;;;855.92;803.92;;;23.20;99.90;;;22.84;78.01;99777.97;5009588;28;20205;-61
2022/06/07 09:15:32;;;;;;;879.60;827.35;;;23.50;99.90;;;22.95;77.43;99782.81;5024952;28;20662;-61
2022/06/07 09:18:04;;;;;;;859.17;807.58;;;23.40;99.90;;;22.91;76.07;99741.66;5003995;28;20229;-62
2022/06/07 09:20:42;;;;;;;831.80;783.30;;;23.40;99.90;;;22.24;77.33;99653.50;5010302;28;20707;-61
2022/06/07 09:23:30;;;;;;;878.58;826.78;;;23.20;99.90;;;22.41;78.81;99703.81;5028384;28;20209;-61
2022/06/07 09:26:33;;;;;;;843.95;792.75;;;23.00;99.90;;;22.95;78.08;99758.53;5009246;28;20214;-61
2022/06/07 09:29:21;;;;;;;893.58;840.65;;;23.30;99.90;;;22.77;77.70;99716.31;5001088;28;20219;-62
2022/06/07 09:31:51;;;;;;;867.08;817.08;;;23.40;99.90;;;22.82;77.42;99700.81;5016613;28;20225;-61
2022/06/07 09:34:30;;;;;;;900.78;847.55;;;23.30;99.90;;;23.34;78.60;99787.91;5004620;28;20576;-61
2022/06/07 09:37:16;;;;;;;928.25;874.92;;;23.40;99.90;;;23.68;75.62;99746.53;5000838;28;20211;-61
2022/06/07 09:39:45;;;;;;;929.05;874.40;;;23.90;99.90;;;23.28;74.96;99680.31;5024179;28;20216;-61
2022/06/07 09:42:29;;;;;;;912.90;860.63;;;23.80;99.90;;;23.38;73.86;99675.28;5006747;28;20229;-61
2022/06/07 09:45:23;;;;;;;1014.95;955.78;;;23.90;99.90;;;23.86;73.04;99706.81;5018618;28;20599;-61
2022/06/07 09:47:51;;;;;;;1014.38;954.92;;;24.00;99.90;;;23.69;71.38;99648.38;5007673;28;20221;-62
2022/06/07 09:50:21;;;;;;;1040.68;978.88;;;24.20;99.90;;;23.66;72.71;99632.34;4998690;28;20220;-62
2022/06/07 09:52:59;;;;;;;940.25;882.90;;;24.20;99.90;;;23.36;72.58;99571.97;5026246;28;20202;-61
2022/06/07 09:55:44;;;;;;;1027.28;966.80;;;24.30;99.90;;;23.82;74.00;99651.25;5024958;28;20206;-61
2022/06/07 09:58:55;;;;;;;1046.00;984.20;;;24.20;99.90;;;23.41;72.48;99569.94;4999259;28;20212;-61
2022/06/07 10:01:44;;;;;;;982.95;925.00;;;24.10;99.90;;;23.22;70.53;99499.94;5045406;28;20223;-61
2022/06/07 10:04:29;;;;;;;960.67;904.30;;;24.10;99.90;;;23.77;70.24;99553.44;5014644;28;20596;-61
2022/06/07 10:07:03;;;;;;;945.90;888.85;;;24.40;99.90;;;24.16;72.93;99637.50;5011492;28;20208;-61
2022/06/07 10:10:11;;;;;;;945.05;888.92;;;24.40;99.90;;;24.23;67.80;99540.75;5005918;28;20210;-61
2022/06/07 10:13:19;;;;;;;1008.25;947.80;;;24.90;99.90;;;24.09;70.25;99513.72;5019310;28;20198;-61
2022/06/07 10:16:04;;;;;;;953.75;896.53;;;24.80;99.90;;;24.07;68.11;99473.28;5026822;28;20220;-61
2022/06/07 10:18:57;;;;;;;968.30;910.83;;;24.90;99.90;;;24.20;69.07;99495.88;4977984;28;20201;-61
2022/06/07 10:21:56;;;;;;;980.58;921.80;;;24.80;99.90;;;24.12;67.43;99443.28;5044763;28;20230;-61
2022/06/07 10:24:59;;;;;;;968.90;911.30;;;25.20;99.90;;;24.43;68.24;99483.66;5008289;28;20305;-61
2022/06/07 10:27:42;;;;;;;934.88;878.45;;;25.20;99.90;;;24.06;71.03;99452.66;5027634;28;20200;-61
2022/06/07 10:30:21;;;;;;;972.75;915.05;;;27.50;99.90;;;24.51;68.50;99475.94;5023347;28;20756;-61
2022/06/07 10:33:24;;;;;;;965.72;906.63;;;25.10;99.90;;;24.61;67.83;99457.31;5008597;28;20212;-61
2022/06/07 10:36:32;;;;;;;984.10;924.85;;;25.10;99.90;;;24.08;68.53;99374.22;4989420;28;20208;-61